KHVS/HVS METAR and TAF weather

Enter ICAO airport designator
Station Type Date Time Source
KHVS METAR 2020/09/19 20:55 UTC NOAA

KHVS 192055Z AUTO 04008G15KT 10SM CLR 19/09 A3019 RMK AO2


Station Type Date Time Source
KHVS Decoded METAR 2020/09/19 20:55 UTC NOAA

Station name not available
Sep 19, 2020 - 04:55 PM EDT / 2020.09.19 2055 UTC
Wind: from the NE (040 degrees) at 9 MPH (8 KT) gusting to 17 MPH (15 KT):0
Visibility: 10 mile(s):0
Sky conditions: clear
Temperature: 66 F (19 C)
Dew Point: 48 F (9 C)
Relative Humidity: 52%
Pressure (altimeter): 30.19 in. Hg (1022 hPa)
ob: KHVS 192055Z AUTO 04008G15KT 10SM CLR 19/09 A3019 RMK AO2
cycle: 21

Station Type Date Time Source
KHVS TAF UTC NOAA

Error!

Example: see airport list